Airfield :
LOGIN :

Register | Disclaimer

   EN    FR    IT 

 










Legend :    VFR   Marginal VFR   IFR   Intensive IFR   Very Intensive IFR
Visi :
Ceiling :
>= 8 km
>= 3000ft
5 to 8 km
1000 to 3000 ft
1500m to 5 km
500 to 1000 ft
800 to 1500m
200 to 500 ft
< 800m
< 200 ft
Symbols :   Thunderstorms  Fog  Heavy snow  Heavy precipitations  Wind > 20 kt
SIGMETs :     Misc.  Thunderstorms  Icing  Turbulence  Mountain Waves  Volcanic Ashes






- Airport Elevation : 646 ft
- IATA code : VNO


EYVI - Vilnius int.

CURRENT METAR :
  • 290720Z 01015KT 340V060 CAVOK 15/04 Q1020 NOSIG

EXPIRED METARs :
  • 290650Z 01015KT 340V040 CAVOK 14/04 Q1021 NOSIG
  • 290620Z 02013KT CAVOK 14/04 Q1021 NOSIG
  • 290550Z 01013KT 340V040 CAVOK 13/05 Q1021 NOSIG
  • 290520Z 36011KT CAVOK 12/05 Q1021 NOSIG
  • 290450Z 36010KT CAVOK 11/06 Q1021 NOSIG

TAF TAF EYVI
Valid from the 29 at 06:00 until the 30 at 06:00 UTC


290504Z 2906/3006 36016G26KT 9000 SCT040
TEMPO 2909/2918 SCT030CB
BECMG 2918/2919 01012KT



MET'MAP, your aeronautical weather chart ! - Copyright ORBIFLY December 2007 - Disclaimer

ORBIFLY MET'MAP TEAM :

Programming & Development : Alexandra Zaïnal
Concept & original design : Baudouin d'Aumeries
Assistance for programming : Marc-Olivier Méhu
Technical & hardware support : Manuel Goepfert

Contact : metmap@orbifly.com




SOURCES & CREDITS :

   NOAA